Time;durP1;ratioP1;P1;durP2;ratioP2;P2;SDS_P1;SDS_P2;PMS_P1;PMS_P2;Temp;Humidity;BMP_temperature;BMP_pressure;BME280_temperature;BME280_humidity;BME280_pressure;Samples;Min_cycle;Max_cycle;Signal;HPM_P1;HPM_P2
2023/03/10 00:01:48;;;;;;;6.28;3.35;;;;;;;0.69;100.00;98869.25;6277288;28;20052;-77
2023/03/10 00:04:50;;;;;;;7.55;3.33;;;;;;;0.66;100.00;98865.94;6292982;28;20049;-77
2023/03/10 00:07:52;;;;;;;12.50;3.90;;;;;;;0.63;100.00;98856.56;6293166;28;20063;-77
2023/03/10 00:10:54;;;;;;;8.60;3.40;;;;;;;0.65;100.00;98847.03;6301419;28;20044;-77
2023/03/10 00:13:55;;;;;;;6.80;3.22;;;;;;;0.68;100.00;98843.44;6292229;28;20353;-77
2023/03/10 00:16:56;;;;;;;5.82;3.00;;;;;;;0.72;100.00;98840.66;6285532;28;20091;-77
2023/03/10 00:19:58;;;;;;;6.78;3.42;;;;;;;0.70;100.00;98833.88;6301081;28;20360;-77
2023/03/10 00:23:01;;;;;;;7.50;2.95;;;;;;;0.75;100.00;98826.78;6291768;28;20049;-77
2023/03/10 00:26:02;;;;;;;11.50;4.35;;;;;;;0.83;100.00;98819.53;6276762;28;20049;-77
2023/03/10 00:29:04;;;;;;;6.53;3.63;;;;;;;0.83;100.00;98811.75;6300954;28;20056;-77
2023/03/10 00:32:06;;;;;;;11.07;2.97;;;;;;;0.82;100.00;98804.06;6288158;28;20168;-77
2023/03/10 00:35:08;;;;;;;7.72;3.63;;;;;;;0.73;100.00;98798.41;6286695;28;20060;-77
2023/03/10 00:38:11;;;;;;;6.18;3.03;;;;;;;0.69;100.00;98799.44;6277297;28;20056;-77
2023/03/10 00:41:14;;;;;;;9.20;4.18;;;;;;;0.77;100.00;98799.09;6283475;28;20041;-77
2023/03/10 00:44:15;;;;;;;6.32;4.03;;;;;;;0.82;100.00;98788.53;6295740;28;20071;-77
2023/03/10 00:47:17;;;;;;;7.15;3.67;;;;;;;0.79;100.00;98781.78;6300675;28;20059;-77
2023/03/10 00:50:18;;;;;;;8.38;4.07;;;;;;;0.79;100.00;98775.78;6299744;28;20128;-77
2023/03/10 00:53:21;;;;;;;8.98;4.15;;;;;;;0.77;100.00;98773.25;6294362;28;20045;-77
2023/03/10 00:56:24;;;;;;;5.18;3.25;;;;;;;0.78;100.00;98766.34;6293146;28;20340;-77
2023/03/10 00:59:26;;;;;;;8.00;3.22;;;;;;;0.70;100.00;98752.00;6291926;28;20361;-78
2023/03/10 01:02:28;;;;;;;6.70;3.85;;;;;;;0.73;100.00;98748.47;6293810;28;20049;-77
2023/03/10 01:05:29;;;;;;;5.82;2.88;;;;;;;0.78;100.00;98753.41;6292033;28;20060;-77
2023/03/10 01:08:32;;;;;;;8.13;4.07;;;;;;;0.79;100.00;98740.41;6277758;28;20053;-77
2023/03/10 01:11:34;;;;;;;6.97;3.42;;;;;;;0.84;100.00;98729.88;6281461;28;20044;-77
2023/03/10 01:14:35;;;;;;;7.55;3.78;;;;;;;0.82;100.00;98722.19;6300306;28;20044;-77
2023/03/10 01:17:37;;;;;;;5.65;3.42;;;;;;;0.76;100.00;98725.03;6289281;28;20143;-77
2023/03/10 01:20:40;;;;;;;6.60;3.03;;;;;;;0.73;100.00;98712.28;6299790;28;20048;-77
2023/03/10 01:23:43;;;;;;;5.72;3.80;;;;;;;0.68;100.00;98699.56;6293250;28;20053;-77
2023/03/10 01:26:44;;;;;;;6.57;3.22;;;;;;;0.63;100.00;98698.06;6290646;28;20045;-77
2023/03/10 01:29:45;;;;;;;7.95;4.40;;;;;;;0.60;100.00;98678.38;6300163;28;20065;-77
2023/03/10 01:32:47;;;;;;;6.32;2.65;;;;;;;0.65;100.00;98670.44;6298255;28;20044;-78
2023/03/10 01:35:48;;;;;;;4.72;3.05;;;;;;;0.62;100.00;98675.72;6291615;28;20057;-77
2023/03/10 01:38:51;;;;;;;5.07;2.75;;;;;;;0.68;100.00;98660.78;6274018;28;20057;-77
2023/03/10 01:41:52;;;;;;;5.63;2.97;;;;;;;0.76;100.00;98663.00;6283701;28;20053;-78
2023/03/10 01:45:06;;;;;;;6.63;3.03;;;;;;;0.74;100.00;98654.47;6274154;28;20041;-77
2023/03/10 01:48:08;;;;;;;7.18;3.53;;;;;;;0.73;100.00;98651.06;6282994;28;20072;-77
2023/03/10 01:51:09;;;;;;;4.47;2.67;;;;;;;0.72;100.00;98633.84;6285843;28;20417;-77
2023/03/10 01:54:16;;;;;;;4.22;2.30;;;;;;;0.73;100.00;98635.56;6299797;28;20146;-77
2023/03/10 01:57:22;;;;;;;6.10;2.75;;;;;;;0.76;100.00;98611.28;6282844;28;20057;-78
2023/03/10 02:00:25;;;;;;;5.32;2.70;;;;;;;0.80;100.00;98606.81;6278508;28;20044;-77
2023/03/10 02:03:29;;;;;;;10.02;4.05;;;;;;;0.74;100.00;98598.44;6288815;28;20044;-77
2023/03/10 02:06:32;;;;;;;6.40;2.75;;;;;;;0.72;100.00;98596.84;6291763;28;20049;-77
2023/03/10 02:09:38;;;;;;;6.57;3.30;;;;;;;0.83;100.00;98591.16;6293658;28;20048;-77
2023/03/10 02:12:39;;;;;;;3.92;3.03;;;;;;;0.79;100.00;98592.22;6303938;28;20048;-77
2023/03/10 02:15:41;;;;;;;4.18;2.58;;;;;;;0.75;100.00;98581.19;6295916;28;20048;-77
2023/03/10 02:18:45;;;;;;;3.10;1.52;;;;;;;0.70;100.00;98575.41;6296642;28;20052;-77
2023/03/10 02:21:54;;;;;;;4.50;2.35;;;;;;;0.74;100.00;98569.19;6279423;28;20049;-77
2023/03/10 02:25:07;;;;;;;5.72;2.33;;;;;;;0.72;100.00;98563.22;6295647;28;20052;-77
2023/03/10 02:28:10;;;;;;;7.70;3.25;;;;;;;0.70;100.00;98554.72;6289891;28;20057;-77
2023/03/10 02:31:13;;;;;;;6.05;3.08;;;;;;;0.65;100.00;98547.19;6303795;28;20036;-77
2023/03/10 02:34:14;;;;;;;6.70;3.03;;;;;;;0.68;100.00;98543.63;6302144;28;20040;-77
2023/03/10 02:37:21;;;;;;;5.78;2.85;;;;;;;0.75;100.00;98525.16;6291880;28;20053;-77
2023/03/10 02:40:30;;;;;;;2.17;1.75;;;;;;;0.76;100.00;98524.22;6278888;28;20049;-77
2023/03/10 02:43:34;;;;;;;5.60;2.63;;;;;;;0.79;100.00;98525.84;6301046;28;20053;-77
2023/03/10 02:46:36;;;;;;;5.90;2.15;;;;;;;0.78;100.00;98513.00;6280608;28;20045;-77
2023/03/10 02:49:39;;;;;;;2.67;1.58;;;;;;;0.83;100.00;98513.63;6293286;28;20045;-77
2023/03/10 02:52:44;;;;;;;2.67;1.90;;;;;;;0.78;100.00;98502.66;6303566;28;20055;-77
2023/03/10 02:55:45;;;;;;;2.25;1.42;;;;;;;0.74;100.00;98484.72;6303395;28;20052;-77
2023/03/10 02:58:48;;;;;;;3.65;1.80;;;;;;;0.73;100.00;98490.81;6294972;28;20055;-77
2023/03/10 03:01:50;;;;;;;3.40;2.10;;;;;;;0.78;100.00;98479.41;6302696;28;20048;-77
2023/03/10 03:04:51;;;;;;;4.32;1.80;;;;;;;0.81;100.00;98469.72;6295019;28;20064;-77
2023/03/10 03:07:52;;;;;;;3.28;1.70;;;;;;;0.78;100.00;98458.72;6302782;28;20353;-77
2023/03/10 03:10:54;;;;;;;3.08;1.42;;;;;;;0.82;100.00;98436.94;6294417;28;20049;-77
2023/03/10 03:13:57;;;;;;;2.00;1.30;;;;;;;0.74;100.00;98445.94;6277258;28;20060;-77
2023/03/10 03:16:59;;;;;;;3.03;1.50;;;;;;;0.82;100.00;98453.31;6277617;28;20067;-78
2023/03/10 03:20:01;;;;;;;1.52;0.82;;;;;;;0.78;100.00;98451.78;6277740;28;20345;-77
2023/03/10 03:23:02;;;;;;;2.22;1.48;;;;;;;0.79;100.00;98430.19;6277866;28;20057;-77
2023/03/10 03:26:04;;;;;;;1.83;1.40;;;;;;;0.82;100.00;98431.78;6279559;28;20144;-77
2023/03/10 03:29:09;;;;;;;2.88;1.50;;;;;;;0.75;100.00;98428.69;6300339;28;20048;-77
2023/03/10 03:32:10;;;;;;;2.42;1.65;;;;;;;0.76;100.00;98451.03;6277884;28;20057;-77
2023/03/10 03:35:14;;;;;;;2.55;1.50;;;;;;;0.79;100.00;98427.63;6285710;28;20052;-77
2023/03/10 03:38:16;;;;;;;1.45;1.27;;;;;;;0.82;100.00;98424.88;6277572;28;20087;-77
2023/03/10 03:41:17;;;;;;;2.03;1.00;;;;;;;0.85;100.00;98424.69;6277348;28;20037;-77
2023/03/10 03:44:20;;;;;;;1.10;0.75;;;;;;;0.86;100.00;98428.13;6280944;28;20049;-77
2023/03/10 03:47:21;;;;;;;2.60;1.27;;;;;;;0.96;100.00;98425.00;6301924;28;20052;-77
2023/03/10 03:50:23;;;;;;;0.68;0.65;;;;;;;0.99;100.00;98429.16;6301869;28;20041;-77
2023/03/10 03:53:25;;;;;;;1.23;0.90;;;;;;;0.92;100.00;98430.41;6302014;28;20041;-77
2023/03/10 03:56:26;;;;;;;0.80;0.80;;;;;;;0.94;100.00;98436.31;6288734;28;20049;-77
2023/03/10 03:59:29;;;;;;;3.53;1.05;;;;;;;0.91;100.00;98433.88;6298488;28;20044;-77
2023/03/10 04:02:30;;;;;;;1.40;1.00;;;;;;;0.96;100.00;98419.84;6301696;28;20048;-77
2023/03/10 04:05:32;;;;;;;1.20;0.50;;;;;;;0.96;100.00;98425.00;6287053;28;20352;-77
2023/03/10 04:08:33;;;;;;;1.77;0.80;;;;;;;0.93;100.00;98414.81;6298919;28;20459;-77
2023/03/10 04:11:35;;;;;;;0.85;0.65;;;;;;;0.84;100.00;98407.53;6289737;28;20045;-77
2023/03/10 04:14:38;;;;;;;1.35;0.90;;;;;;;0.90;100.00;98412.38;6284303;28;20051;-77
2023/03/10 04:17:39;;;;;;;0.40;0.40;;;;;;;0.92;100.00;98413.16;6287209;28;20071;-77
2023/03/10 04:20:41;;;;;;;1.05;0.95;;;;;;;0.95;100.00;98423.34;6286939;28;20044;-78
2023/03/10 04:23:42;;;;;;;1.02;0.60;;;;;;;1.04;100.00;98429.75;6284262;28;20351;-77
2023/03/10 04:26:46;;;;;;;0.60;0.45;;;;;;;1.04;100.00;98437.50;6284070;28;20048;-77
2023/03/10 04:29:49;;;;;;;0.70;0.70;;;;;;;0.99;100.00;98447.25;6290179;28;20053;-77
2023/03/10 04:32:50;;;;;;;0.43;0.43;;;;;;;0.99;100.00;98450.69;6283262;28;20437;-77
2023/03/10 04:35:52;;;;;;;0.80;0.70;;;;;;;1.04;100.00;98449.63;6254897;28;20041;-77
2023/03/10 04:38:53;;;;;;;1.20;0.70;;;;;;;1.09;100.00;98452.78;6256320;28;20048;-78
2023/03/10 04:41:55;;;;;;;0.68;0.68;;;;;;;1.06;100.00;98458.97;6266423;28;20052;-78
2023/03/10 04:44:58;;;;;;;1.58;1.02;;;;;;;1.06;100.00;98473.66;6273333;28;20049;-77
2023/03/10 04:47:59;;;;;;;2.33;1.27;;;;;;;1.10;100.00;98481.19;6259848;28;20052;-78
2023/03/10 04:51:03;;;;;;;1.35;1.02;;;;;;;1.12;100.00;98478.50;6258531;28;20491;-77
2023/03/10 04:54:04;;;;;;;1.15;0.88;;;;;;;1.09;100.00;98483.84;6260549;28;20044;-78
2023/03/10 04:57:05;;;;;;;1.33;1.15;;;;;;;1.16;100.00;98480.88;6260159;28;20133;-77
2023/03/10 05:00:11;;;;;;;3.28;1.13;;;;;;;1.16;100.00;98482.63;6257579;28;20044;-77
2023/03/10 05:03:13;;;;;;;1.25;1.00;;;;;;;1.16;100.00;98493.78;6258126;28;20051;-78
2023/03/10 05:06:16;;;;;;;1.17;1.08;;;;;;;1.18;100.00;98489.41;6257880;28;20051;-77
2023/03/10 05:09:18;;;;;;;0.98;0.90;;;;;;;1.19;100.00;98492.81;6255501;28;20572;-78
2023/03/10 05:12:20;;;;;;;1.17;1.00;;;;;;;1.21;100.00;98498.72;6254352;28;20051;-78
2023/03/10 05:15:23;;;;;;;0.88;0.63;;;;;;;1.22;100.00;98505.56;6257162;28;20480;-77
2023/03/10 05:18:24;;;;;;;0.73;0.73;;;;;;;1.22;100.00;98496.06;6278993;28;20361;-78
2023/03/10 05:21:26;;;;;;;2.80;1.20;;;;;;;1.20;100.00;98494.47;6282811;28;20033;-77
2023/03/10 05:24:27;;;;;;;0.90;0.80;;;;;;;1.18;100.00;98493.72;6268075;28;20040;-77
2023/03/10 05:27:28;;;;;;;1.58;1.13;;;;;;;1.19;100.00;98488.47;6255521;28;20040;-77
2023/03/10 05:30:31;;;;;;;4.03;1.35;;;;;;;1.19;100.00;98496.25;6257440;28;20045;-77
2023/03/10 05:33:32;;;;;;;1.75;0.93;;;;;;;1.18;100.00;98501.47;6262534;28;20049;-77
2023/03/10 05:36:34;;;;;;;1.67;1.10;;;;;;;1.19;100.00;98509.16;6296929;28;20049;-77
2023/03/10 05:39:35;;;;;;;0.65;0.65;;;;;;;1.17;100.00;98502.38;6285562;28;20052;-77
2023/03/10 05:42:37;;;;;;;0.88;0.73;;;;;;;1.22;100.00;98500.41;6274931;28;20358;-77
2023/03/10 05:45:39;;;;;;;1.23;1.10;;;;;;;1.22;100.00;98500.41;6288110;28;20052;-77
2023/03/10 05:48:41;;;;;;;1.52;0.85;;;;;;;1.19;100.00;98500.56;6299432;28;20056;-77
2023/03/10 05:51:42;;;;;;;3.72;0.60;;;;;;;1.17;100.00;98512.72;6300046;28;20052;-77
2023/03/10 05:54:43;;;;;;;2.67;0.95;;;;;;;1.16;100.00;98511.06;6299523;28;20329;-77
2023/03/10 05:57:46;;;;;;;1.08;0.98;;;;;;;1.15;100.00;98502.47;6299880;28;20455;-77
2023/03/10 06:00:49;;;;;;;2.15;1.50;;;;;;;1.07;100.00;98498.59;6275304;28;20045;-77
2023/03/10 06:03:50;;;;;;;1.33;0.88;;;;;;;1.11;100.00;98513.88;6299712;28;20053;-77
2023/03/10 06:06:54;;;;;;;1.30;1.17;;;;;;;0.98;100.00;98518.84;6291025;28;20044;-77
2023/03/10 06:09:56;;;;;;;1.70;0.90;;;;;;;0.98;100.00;98524.00;6297792;28;20110;-77
2023/03/10 06:12:57;;;;;;;1.20;1.02;;;;;;;1.01;100.00;98533.38;6296548;28;20075;-77
2023/03/10 06:16:02;;;;;;;2.72;1.23;;;;;;;1.04;100.00;98540.97;6299155;28;20052;-77
2023/03/10 06:19:03;;;;;;;2.05;1.20;;;;;;;1.08;100.00;98545.06;6299401;28;20049;-77
2023/03/10 06:22:05;;;;;;;2.95;0.85;;;;;;;1.14;100.00;98539.59;6299206;28;20044;-77
2023/03/10 06:25:07;;;;;;;1.55;0.90;;;;;;;1.08;100.00;98539.91;6299240;28;20052;-77
2023/03/10 06:28:10;;;;;;;1.00;0.88;;;;;;;1.04;100.00;98532.38;6296659;28;20052;-77
2023/03/10 06:31:16;;;;;;;1.17;1.02;;;;;;;1.11;100.00;98518.22;6274408;28;20107;-77
2023/03/10 06:34:17;;;;;;;1.67;1.20;;;;;;;1.05;100.00;98510.78;6274275;28;20044;-77
2023/03/10 06:37:18;;;;;;;1.00;0.90;;;;;;;0.99;100.00;98528.25;6295437;28;20040;-77
2023/03/10 06:40:20;;;;;;;1.50;1.20;;;;;;;1.02;100.00;98538.47;6278386;28;20052;-77
2023/03/10 06:43:22;;;;;;;0.88;0.82;;;;;;;0.99;100.00;98541.19;6281156;28;20055;-77
2023/03/10 06:46:25;;;;;;;1.38;0.82;;;;;;;1.09;100.00;98539.00;6285692;28;20052;-77
2023/03/10 06:49:29;;;;;;;2.45;1.35;;;;;;;1.17;100.00;98536.00;6288092;28;20441;-77
2023/03/10 06:52:32;;;;;;;3.10;1.92;;;;;;;1.16;100.00;98539.53;6288716;28;20099;-77
2023/03/10 06:55:34;;;;;;;6.07;1.63;;;;;;;1.16;100.00;98544.69;6288333;28;20052;-77
2023/03/10 06:58:37;;;;;;;2.15;1.45;;;;;;;1.21;100.00;98540.97;6288423;28;20353;-77
2023/03/10 07:01:39;;;;;;;2.22;1.15;;;;;;;1.24;100.00;98556.34;6288426;28;20353;-77
2023/03/10 07:04:41;;;;;;;1.42;1.10;;;;;;;1.32;100.00;98561.13;6289989;28;20055;-77
2023/03/10 07:07:42;;;;;;;1.23;1.13;;;;;;;1.31;100.00;98556.84;6288225;28;20047;-77
2023/03/10 07:10:44;;;;;;;2.90;1.48;;;;;;;1.27;100.00;98557.91;6288530;28;20048;-77
2023/03/10 07:13:45;;;;;;;1.80;1.40;;;;;;;1.29;100.00;98563.84;6286520;28;20056;-77
2023/03/10 07:16:48;;;;;;;2.35;1.33;;;;;;;1.41;100.00;98560.66;6289188;28;20051;-77
2023/03/10 07:19:49;;;;;;;1.63;1.15;;;;;;;1.39;100.00;98559.88;6285818;28;20048;-77
2023/03/10 07:22:51;;;;;;;1.83;1.13;;;;;;;1.42;100.00;98564.09;6296887;28;20040;-77
2023/03/10 07:25:53;;;;;;;0.77;0.77;;;;;;;1.27;100.00;98563.09;6286849;28;20041;-77
2023/03/10 07:28:55;;;;;;;0.80;0.75;;;;;;;1.25;100.00;98570.09;6289111;28;20040;-77
2023/03/10 07:31:57;;;;;;;3.35;1.40;;;;;;;1.36;100.00;98574.72;6290168;28;20045;-77
2023/03/10 07:34:59;;;;;;;2.63;1.02;;;;;;;1.41;100.00;98577.91;6285705;28;20060;-77
2023/03/10 07:38:00;;;;;;;1.13;0.85;;;;;;;1.39;100.00;98584.94;6278942;28;20456;-77
2023/03/10 07:41:06;;;;;;;2.42;0.93;;;;;;;1.38;100.00;98585.84;6285802;28;20353;-77
2023/03/10 07:44:07;;;;;;;2.47;1.48;;;;;;;1.39;100.00;98593.53;6284728;28;20040;-77
2023/03/10 07:47:10;;;;;;;1.98;1.00;;;;;;;1.44;100.00;98590.69;6284779;28;20048;-77
2023/03/10 07:50:12;;;;;;;0.68;0.50;;;;;;;1.43;100.00;98596.78;6284209;28;20064;-78
2023/03/10 07:53:13;;;;;;;1.00;0.90;;;;;;;1.48;100.00;98600.00;6283388;28;20044;-78
2023/03/10 07:56:15;;;;;;;1.63;1.25;;;;;;;1.53;100.00;98596.25;6295107;28;20433;-78
2023/03/10 07:59:17;;;;;;;2.33;1.27;;;;;;;1.60;100.00;98598.53;6284893;28;20045;-77
2023/03/10 08:02:19;;;;;;;1.35;1.13;;;;;;;1.55;100.00;98611.72;6281654;28;20353;-78
2023/03/10 08:05:21;;;;;;;3.00;1.48;;;;;;;1.58;100.00;98614.13;6277008;28;20341;-78
2023/03/10 08:08:22;;;;;;;0.65;0.65;;;;;;;1.63;100.00;98616.47;6277154;28;20041;-79
2023/03/10 08:11:25;;;;;;;1.20;1.10;;;;;;;1.58;100.00;98614.13;6278912;28;20120;-77
2023/03/10 08:14:28;;;;;;;1.27;1.00;;;;;;;1.63;100.00;98621.66;6288176;28;20089;-77
2023/03/10 08:17:32;;;;;;;1.30;1.20;;;;;;;1.58;100.00;98621.88;6277151;28;20045;-78
2023/03/10 08:20:35;;;;;;;1.23;1.10;;;;;;;1.69;100.00;98629.13;6287708;28;20103;-78
2023/03/10 08:23:37;;;;;;;2.10;1.40;;;;;;;1.72;100.00;98653.09;6286135;28;20078;-78
2023/03/10 08:26:38;;;;;;;1.90;1.13;;;;;;;1.66;100.00;98661.19;6290786;28;20048;-78
2023/03/10 08:29:40;;;;;;;1.75;1.25;;;;;;;1.75;100.00;98670.22;6277833;28;20080;-79
2023/03/10 08:32:42;;;;;;;1.88;1.17;;;;;;;1.82;100.00;98655.22;6299586;28;20055;-78
2023/03/10 08:35:44;;;;;;;1.60;1.27;;;;;;;1.82;100.00;98640.53;6301004;28;20059;-78
2023/03/10 08:38:46;;;;;;;3.15;1.58;;;;;;;1.72;100.00;98637.56;6292505;28;20048;-78
2023/03/10 08:41:48;;;;;;;1.48;1.15;;;;;;;1.83;100.00;98642.19;6276937;28;20052;-78
2023/03/10 08:44:49;;;;;;;1.33;1.13;;;;;;;1.87;100.00;98633.34;6300577;28;20048;-79
2023/03/10 08:47:52;;;;;;;1.38;0.82;;;;;;;1.86;100.00;98630.81;6287492;28;20053;-77
2023/03/10 08:50:54;;;;;;;1.98;1.30;;;;;;;1.72;100.00;98647.06;6289749;28;20040;-77
2023/03/10 08:53:55;;;;;;;1.10;0.95;;;;;;;1.76;100.00;98636.47;6289418;28;20048;-78
2023/03/10 08:56:56;;;;;;;2.05;0.93;;;;;;;1.79;100.00;98645.84;6296210;28;20056;-77
2023/03/10 08:59:58;;;;;;;2.08;1.52;;;;;;;1.78;100.00;98650.19;6298374;28;20056;-77
2023/03/10 09:03:01;;;;;;;2.63;1.42;;;;;;;1.74;100.00;98655.63;6300183;28;20459;-78
2023/03/10 09:06:03;;;;;;;1.23;0.93;;;;;;;1.79;100.00;98651.03;6300011;28;20364;-77
2023/03/10 09:09:07;;;;;;;0.98;0.82;;;;;;;1.86;100.00;98657.56;6291427;28;20052;-79
2023/03/10 09:12:09;;;;;;;2.92;1.95;;;;;;;1.90;100.00;98660.84;6292155;28;20044;-78
2023/03/10 09:15:11;;;;;;;2.90;1.75;;;;;;;1.84;100.00;98655.97;6294073;28;20589;-77
2023/03/10 09:18:15;;;;;;;3.38;1.73;;;;;;;1.89;100.00;98657.41;6300010;28;20135;-78
2023/03/10 09:21:19;;;;;;;2.97;1.65;;;;;;;1.86;100.00;98654.97;6283215;28;20036;-77
2023/03/10 09:24:20;;;;;;;2.38;1.58;;;;;;;1.84;100.00;98650.81;6295868;28;20441;-77
2023/03/10 09:27:22;;;;;;;1.33;1.23;;;;;;;1.83;100.00;98657.75;6286804;28;20041;-78
2023/03/10 09:30:23;;;;;;;9.13;1.83;;;;;;;1.88;100.00;98666.09;6284222;28;20045;-78
2023/03/10 09:33:26;;;;;;;3.25;1.60;;;;;;;1.96;100.00;98657.94;6284909;28;20048;-78
2023/03/10 09:36:28;;;;;;;2.60;1.63;;;;;;;1.94;100.00;98645.06;6286008;28;20505;-78
2023/03/10 09:39:30;;;;;;;2.30;1.95;;;;;;;2.04;100.00;98650.59;6286290;28;20187;-77
2023/03/10 09:42:37;;;;;;;4.13;2.30;;;;;;;2.14;100.00;98664.75;6283899;28;20049;-78
2023/03/10 09:45:46;;;;;;;19.15;7.95;;;;;;;2.20;100.00;98671.38;6285922;28;20048;-77
2023/03/10 09:48:55;;;;;;;31.90;9.55;;;;;;;2.09;100.00;98653.81;6286506;28;20037;-77
2023/03/10 09:51:56;;;;;;;27.20;12.23;;;;;;;2.09;100.00;98656.41;6286192;28;20055;-77
2023/03/10 09:55:01;;;;;;;15.32;7.63;;;;;;;2.06;100.00;98664.31;6286012;28;20049;-78
2023/03/10 09:58:03;;;;;;;8.88;5.15;;;;;;;2.10;100.00;98665.00;6289249;28;20053;-78
2023/03/10 10:01:05;;;;;;;7.53;4.45;;;;;;;2.05;100.00;98657.47;6289096;28;20049;-77
2023/03/10 10:04:12;;;;;;;4.03;2.72;;;;;;;2.07;100.00;98662.56;6299558;28;20080;-77
2023/03/10 10:07:16;;;;;;;5.40;2.55;;;;;;;2.06;100.00;98658.31;6288204;28;20049;-77
2023/03/10 10:10:21;;;;;;;3.05;2.17;;;;;;;1.98;100.00;98677.66;6297155;28;20045;-78
2023/03/10 10:13:25;;;;;;;4.88;2.10;;;;;;;1.94;100.00;98677.91;6290748;28;20059;-79
2023/03/10 10:16:33;;;;;;;10.85;6.03;;;;;;;2.06;100.00;98676.44;6278175;28;20049;-77
2023/03/10 10:19:38;;;;;;;10.65;5.00;;;;;;;2.08;100.00;98675.41;6288492;28;20456;-77
2023/03/10 10:22:39;;;;;;;11.48;5.05;;;;;;;2.08;100.00;98667.66;6287679;28;20471;-78
2023/03/10 10:25:41;;;;;;;13.05;4.40;;;;;;;2.06;100.00;98681.63;6291945;28;20507;-78
2023/03/10 10:28:46;;;;;;;4.88;2.55;;;;;;;2.06;100.00;98685.03;6289972;28;20047;-78
2023/03/10 10:32:09;;;;;;;3.25;1.95;;;;;;;2.05;100.00;98685.97;6287756;28;20048;-78
2023/03/10 10:35:15;;;;;;;3.97;2.10;;;;;;;2.07;100.00;98688.47;6297855;28;20226;-78
2023/03/10 10:38:25;;;;;;;6.88;3.10;;;;;;;2.16;100.00;98680.22;6303186;28;20060;-77
2023/03/10 10:41:29;;;;;;;3.53;2.72;;;;;;;2.17;100.00;98685.31;6303745;28;20127;-79
2023/03/10 10:44:40;;;;;;;4.07;2.33;;;;;;;2.33;100.00;98698.31;6303435;28;20048;-77
2023/03/10 10:47:48;;;;;;;2.70;1.80;;;;;;;2.29;100.00;98697.63;6303471;28;20044;-80
2023/03/10 10:50:54;;;;;;;3.70;2.00;;;;;;;2.23;100.00;98689.34;6301478;28;20178;-77
2023/03/10 10:53:55;;;;;;;3.53;2.22;;;;;;;2.27;100.00;98678.75;6303349;28;20056;-77
2023/03/10 10:56:58;;;;;;;3.47;2.00;;;;;;;2.22;100.00;98659.16;6302929;28;20045;-78
2023/03/10 11:00:17;;;;;;;3.40;2.03;;;;;;;2.30;100.00;98664.78;6299025;28;20052;-77
2023/03/10 11:03:24;;;;;;;5.82;2.85;;;;;;;2.28;100.00;98669.22;6302795;28;20044;-79
2023/03/10 11:06:31;;;;;;;3.35;2.13;;;;;;;2.36;100.00;98673.97;6282045;28;20474;-78
2023/03/10 11:09:32;;;;;;;11.45;5.03;;;;;;;2.27;100.00;98676.16;6278009;28;20132;-78
2023/03/10 11:12:41;;;;;;;3.00;1.98;;;;;;;2.17;100.00;98690.50;6290964;28;20044;-79
2023/03/10 11:15:51;;;;;;;6.72;3.45;;;;;;;2.12;100.00;98684.72;6290817;28;20052;-79
2023/03/10 11:18:57;;;;;;;5.80;3.17;;;;;;;2.22;100.00;98682.47;6292313;28;20396;-80
2023/03/10 11:22:07;;;;;;;3.60;2.45;;;;;;;2.30;100.00;98680.31;6288641;28;20125;-79
2023/03/10 11:25:19;;;;;;;7.15;2.65;;;;;;;2.35;100.00;98674.91;6302633;28;20416;-78
2023/03/10 11:28:40;;;;;;;3.58;2.22;;;;;;;2.39;100.00;98679.00;6297297;28;20044;-78
2023/03/10 11:31:51;;;;;;;3.40;2.40;;;;;;;2.27;100.00;98683.94;6292718;28;20037;-78
2023/03/10 11:34:53;;;;;;;2.95;1.90;;;;;;;2.40;100.00;98681.50;6288778;28;20056;-78
2023/03/10 11:38:05;;;;;;;178.57;31.02;;;;;;;2.33;100.00;98669.81;6288533;28;20065;-78
2023/03/10 11:41:13;;;;;;;49.95;10.23;;;;;;;2.46;100.00;98657.03;6290886;28;20364;-79
2023/03/10 11:44:26;;;;;;;5.55;2.67;;;;;;;2.51;100.00;98658.44;6290137;28;20040;-77
2023/03/10 11:47:42;;;;;;;40.08;8.77;;;;;;;2.49;100.00;98657.69;6293511;28;20051;-78
2023/03/10 11:50:49;;;;;;;14.68;3.83;;;;;;;2.53;100.00;98653.16;6288810;28;20045;-80
2023/03/10 11:53:55;;;;;;;4.40;2.75;;;;;;;2.60;100.00;98657.13;6285868;28;20052;-78
2023/03/10 11:56:59;;;;;;;4.53;1.77;;;;;;;2.62;100.00;98654.44;6276896;28;20045;-77
2023/03/10 12:00:06;;;;;;;12.38;2.90;;;;;;;2.57;100.00;98654.69;6290482;28;20044;-78
2023/03/10 12:03:16;;;;;;;36.25;5.55;;;;;;;2.51;100.00;98653.25;6299266;28;20045;-78
2023/03/10 12:06:22;;;;;;;8.25;3.05;;;;;;;2.54;100.00;98649.66;6291790;28;20044;-78
2023/03/10 12:09:33;;;;;;;30.75;7.28;;;;;;;2.60;100.00;98646.75;6297493;28;20044;-78
2023/03/10 12:12:36;;;;;;;13.32;4.25;;;;;;;2.61;100.00;98647.56;6293535;28;20143;-78
2023/03/10 12:15:38;;;;;;;4.32;2.03;;;;;;;2.59;100.00;98652.00;6286561;28;20053;-78
2023/03/10 12:18:40;;;;;;;7.53;3.25;;;;;;;2.54;100.00;98644.47;6299148;28;20353;-77
2023/03/10 12:21:41;;;;;;;15.75;5.22;;;;;;;2.59;100.00;98647.66;6301447;28;20055;-80
2023/03/10 12:24:46;;;;;;;10.10;4.90;;;;;;;2.64;100.00;98650.00;6286077;28;20365;-79
2023/03/10 12:28:21;;;;;;;3.80;2.45;;;;;;;2.67;100.00;98648.06;6291983;28;20055;-78
2023/03/10 12:31:47;;;;;;;51.70;9.93;;;;;;;2.56;100.00;98653.00;6294658;28;20456;-79
2023/03/10 12:35:29;;;;;;;6.75;2.70;;;;;;;2.57;100.00;98644.31;6300508;28;20053;-79
2023/03/10 12:38:39;;;;;;;5.78;2.70;;;;;;;2.74;100.00;98646.81;6261445;28;20053;-78
2023/03/10 12:41:46;;;;;;;3.72;2.05;;;;;;;2.77;100.00;98651.84;6291039;28;20049;-80
2023/03/10 12:44:54;;;;;;;3.35;2.15;;;;;;;2.77;100.00;98648.38;6300773;28;20052;-78
2023/03/10 12:48:01;;;;;;;3.65;2.45;;;;;;;2.82;100.00;98642.94;6292470;28;20399;-79
2023/03/10 12:51:09;;;;;;;5.78;2.40;;;;;;;2.85;100.00;98632.41;6300742;28;20345;-78
2023/03/10 12:54:40;;;;;;;3.08;1.85;;;;;;;2.76;100.00;98637.19;6300939;28;20055;-78
2023/03/10 12:57:50;;;;;;;5.55;1.92;;;;;;;2.73;100.00;98637.38;6298705;28;20052;-78
2023/03/10 13:00:57;;;;;;;3.90;2.33;;;;;;;2.69;100.00;98635.03;6299811;28;20079;-78
2023/03/10 13:03:58;;;;;;;3.88;2.10;;;;;;;2.63;100.00;98628.41;6292350;28;20048;-78
2023/03/10 13:07:02;;;;;;;3.60;2.08;;;;;;;2.59;100.00;98623.47;6292083;28;20052;-78
2023/03/10 13:10:15;;;;;;;3.80;2.38;;;;;;;2.58;100.00;98632.19;6300053;28;20053;-78
2023/03/10 13:13:17;;;;;;;3.50;2.22;;;;;;;2.58;100.00;98627.00;6297237;28;20382;-78
2023/03/10 13:16:20;;;;;;;6.03;2.35;;;;;;;2.62;100.00;98618.13;6286798;28;20068;-78
2023/03/10 13:19:24;;;;;;;4.18;2.60;;;;;;;2.56;100.00;98610.69;6300258;28;20044;-78
2023/03/10 13:22:25;;;;;;;5.28;3.10;;;;;;;2.53;100.00;98615.13;6291662;28;20040;-79
2023/03/10 13:25:28;;;;;;;6.93;2.88;;;;;;;2.51;100.00;98609.19;6295334;28;20123;-79
2023/03/10 13:28:33;;;;;;;7.97;3.88;;;;;;;2.60;100.00;98622.56;6299835;28;20055;-77
2023/03/10 13:31:34;;;;;;;4.65;2.83;;;;;;;2.63;100.00;98635.34;6300512;28;20059;-77
2023/03/10 13:34:36;;;;;;;4.20;2.63;;;;;;;2.69;100.00;98628.09;6299892;28;20048;-76
2023/03/10 13:37:37;;;;;;;5.18;2.67;;;;;;;2.71;100.00;98620.22;6300032;28;20182;-79
2023/03/10 13:40:43;;;;;;;6.65;3.67;;;;;;;2.80;100.00;98617.94;6299843;28;20478;-77
2023/03/10 13:43:47;;;;;;;7.10;4.15;;;;;;;2.80;100.00;98633.50;6299851;28;20476;-77
2023/03/10 13:46:51;;;;;;;7.82;3.53;;;;;;;2.68;100.00;98644.56;6297970;28;20048;-77
2023/03/10 13:49:55;;;;;;;9.45;3.67;;;;;;;2.61;100.00;98645.00;6299594;28;20056;-77
2023/03/10 13:52:58;;;;;;;6.07;3.75;;;;;;;2.59;100.00;98639.03;6299898;28;20044;-77
2023/03/10 13:56:09;;;;;;;8.18;4.28;;;;;;;2.60;100.00;98635.53;6299248;28;20055;-78
2023/03/10 13:59:15;;;;;;;7.15;3.45;;;;;;;2.63;100.00;98643.97;6288744;28;20044;-77
2023/03/10 14:02:19;;;;;;;5.38;3.30;;;;;;;2.61;100.00;98637.22;6282011;28;20417;-77
2023/03/10 14:05:40;;;;;;;6.28;4.25;;;;;;;2.58;100.00;98635.59;6286859;28;20459;-78
2023/03/10 14:08:42;;;;;;;8.75;4.32;;;;;;;2.52;100.00;98628.16;6294282;28;20045;-77
2023/03/10 14:11:46;;;;;;;7.57;3.75;;;;;;;2.57;100.00;98640.88;6296517;28;20049;-77
2023/03/10 14:14:48;;;;;;;5.93;3.33;;;;;;;2.55;100.00;98635.78;6287660;28;20049;-77
2023/03/10 14:17:51;;;;;;;5.57;3.22;;;;;;;2.54;100.00;98629.78;6303675;28;20052;-77
2023/03/10 14:20:52;;;;;;;7.68;4.07;;;;;;;2.57;100.00;98635.69;6281969;28;20051;-76
2023/03/10 14:23:56;;;;;;;14.77;4.05;;;;;;;2.47;100.00;98622.41;6293596;28;20041;-77